Wylde Swan — PIWS — position and weather

sailwx.info

Track history (hours):
 
Tides and Currents Weather Stations Pressure Air Temp Water Temp Dewpoint Dewpoint Depression Visibility Wind Speed Wind Dir Waves Ship Positions

Wylde Swan

Last reported at 2020-Mar-22 19:27 UTC. Time now 2020-Apr-02 03:32 UTC.
Position N 18°18' W 063°12'.
Warning: this ship's position is 10 days out of date.

Length 45 m; draft 3.4 m.

Type: Sailing vessel. MMSI: 244074000.

Date/timePositionNaut miles runAvg speedWind from/ knotsBaromVisibWave heightAir tempDewpointWater temp
2020-Mar-22 19:27N 18°18' W 063°12'5 4.7
2020-Mar-22 18:28N 18°13' W 063°12'6 6.1
2020-Mar-22 17:30N 18°07' W 063°12'8 4.8
2020-Mar-22 15:54N 18°02' W 063°07'0 0.0
2020-Mar-22 11:55N 18°02' W 063°06'0 0.0
2020-Mar-22 08:28N 18°02' W 063°06'0 0.0
2020-Mar-22 03:28N 18°02' W 063°06'0 0.0
2020-Mar-22 02:19N 18°02' W 063°06'0 0.0
2020-Mar-21 23:19N 18°02' W 063°06'0 0.0
2020-Mar-21 22:25N 18°02' W 063°06'0 0.0
2020-Mar-21 20:07N 18°02' W 063°06'0 0.0
2020-Mar-21 17:28N 18°02' W 063°07'0 0.0
2020-Mar-21 16:28N 18°02' W 063°07'0 0.0
2020-Mar-21 13:28N 18°02' W 063°06'0 0.0
2020-Mar-21 11:19N 18°02' W 063°06'0 0.0
2020-Mar-21 09:22N 18°02' W 063°06'0 0.0
2020-Mar-21 02:51N 18°02' W 063°06'0 0.0
2020-Mar-21 02:22N 18°02' W 063°06'0 0.0
2020-Mar-21 01:40N 18°02' W 063°06'0 0.0
2020-Mar-21 01:21N 18°02' W 063°06'0 0.0
2020-Mar-21 00:40N 18°02' W 063°06'0 0.0
2020-Mar-20 23:42N 18°02' W 063°06'0 0.0
2020-Mar-20 22:55N 18°02' W 063°06'0 0.0
2020-Mar-20 21:28N 18°02' W 063°06'0 0.0
2020-Mar-20 20:46N 18°02' W 063°06'0 0.0
2020-Mar-20 20:01N 18°02' W 063°06'0 0.0
2020-Mar-20 19:27N 18°02' W 063°06'0 0.0
2020-Mar-20 18:34N 18°02' W 063°06'0 0.0
2020-Mar-20 16:48N 18°02' W 063°06'2 2.4
2020-Mar-20 15:59N 18°00' W 063°05'11 7.0
2020-Mar-20 14:26N 17°52' W 062°58'4 8.3
2020-Mar-20 14:00N 17°48' W 062°57'8 7.5
2020-Mar-20 12:55N 17°40' W 062°54'11 5.1
2020-Mar-20 10:41N 17°29' W 062°53'  
Track history (hours):
 
Tides and Currents Weather Stations Pressure Air Temp Water Temp Dewpoint Dewpoint Depression Visibility Wind Speed Wind Dir Waves Ship Positions

Wylde Swan

Last reported at 2020-Mar-22 19:27 UTC. Time now 2020-Apr-02 03:32 UTC.
Position N 18°18' W 063°12'.
Warning: this ship's position is 10 days out of date.

Length 45 m; draft 3.4 m.

Type: Sailing vessel. MMSI: 244074000.

Date/timePositionNaut miles runAvg speedWind from/ knotsBaromVisibWave heightAir tempDewpointWater temp
2020-Mar-22 19:27N 18°18' W 063°12'5 4.7
2020-Mar-22 18:28N 18°13' W 063°12'6 6.1
2020-Mar-22 17:30N 18°07' W 063°12'8 4.8
2020-Mar-22 15:54N 18°02' W 063°07'0 0.0
2020-Mar-22 11:55N 18°02' W 063°06'0 0.0
2020-Mar-22 08:28N 18°02' W 063°06'0 0.0
2020-Mar-22 03:28N 18°02' W 063°06'0 0.0
2020-Mar-22 02:19N 18°02' W 063°06'0 0.0
2020-Mar-21 23:19N 18°02' W 063°06'0 0.0
2020-Mar-21 22:25N 18°02' W 063°06'0 0.0
2020-Mar-21 20:07N 18°02' W 063°06'0 0.0
2020-Mar-21 17:28N 18°02' W 063°07'0 0.0
2020-Mar-21 16:28N 18°02' W 063°07'0 0.0
2020-Mar-21 13:28N 18°02' W 063°06'0 0.0
2020-Mar-21 11:19N 18°02' W 063°06'0 0.0
2020-Mar-21 09:22N 18°02' W 063°06'0 0.0
2020-Mar-21 02:51N 18°02' W 063°06'0 0.0
2020-Mar-21 02:22N 18°02' W 063°06'0 0.0
2020-Mar-21 01:40N 18°02' W 063°06'0 0.0
2020-Mar-21 01:21N 18°02' W 063°06'0 0.0
2020-Mar-21 00:40N 18°02' W 063°06'0 0.0
2020-Mar-20 23:42N 18°02' W 063°06'0 0.0
2020-Mar-20 22:55N 18°02' W 063°06'0 0.0
2020-Mar-20 21:28N 18°02' W 063°06'0 0.0
2020-Mar-20 20:46N 18°02' W 063°06'0 0.0
2020-Mar-20 20:01N 18°02' W 063°06'0 0.0
2020-Mar-20 19:27N 18°02' W 063°06'0 0.0
2020-Mar-20 18:34N 18°02' W 063°06'0 0.0
2020-Mar-20 16:48N 18°02' W 063°06'2 2.4
2020-Mar-20 15:59N 18°00' W 063°05'11 7.0
2020-Mar-20 14:26N 17°52' W 062°58'4 8.3
2020-Mar-20 14:00N 17°48' W 062°57'8 7.5
2020-Mar-20 12:55N 17°40' W 062°54'11 5.1
2020-Mar-20 10:41N 17°29' W 062°53'  

Dump ship's entire track history